createdAt,value
2023-09-12T00:02:27.302Z,12.80
2023-09-12T00:04:55.337Z,16.50
2023-09-12T00:07:23.237Z,16.70
2023-09-12T00:09:51.258Z,15.40
2023-09-12T00:12:24.208Z,14.70
2023-09-12T00:14:52.476Z,13.80
2023-09-12T00:17:20.654Z,13.00
2023-09-12T00:19:48.673Z,12.30
2023-09-12T00:22:16.578Z,11.80
2023-09-12T00:24:44.780Z,11.90
2023-09-12T00:27:12.982Z,14.40
2023-09-12T00:29:41.037Z,14.30
2023-09-12T00:32:09.099Z,13.00
2023-09-12T00:34:37.189Z,12.70
2023-09-12T00:37:06.080Z,14.60
2023-09-12T00:39:34.671Z,12.30
2023-09-12T00:42:02.649Z,12.40
2023-09-12T00:44:30.684Z,11.70
2023-09-12T00:46:59.124Z,11.70
2023-09-12T00:49:29.364Z,10.50
2023-09-12T00:51:58.087Z,12.50
2023-09-12T00:54:26.882Z,13.40
2023-09-12T00:56:55.271Z,12.90
2023-09-12T00:59:23.771Z,12.90
2023-09-12T01:01:52.469Z,12.90
2023-09-12T01:04:34.185Z,12.60
2023-09-12T01:07:06.388Z,13.20
2023-09-12T01:09:34.863Z,13.80
2023-09-12T01:12:04.183Z,14.60
2023-09-12T01:14:32.540Z,15.40
2023-09-12T01:17:02.734Z,14.10
2023-09-12T01:19:31.815Z,13.30
2023-09-12T01:22:37.715Z,12.20
2023-09-12T01:25:50.419Z,11.30
2023-09-12T01:30:49.997Z,11.30
2023-09-12T01:33:18.338Z,12.90
2023-09-12T01:35:47.658Z,14.50
2023-09-12T01:38:16.002Z,13.30
2023-09-12T01:40:50.185Z,12.90
2023-09-12T01:43:20.668Z,12.30
2023-09-12T01:45:54.901Z,11.90
2023-09-12T01:48:27.997Z,11.40
2023-09-12T01:50:56.146Z,12.10
2023-09-12T01:53:24.578Z,13.20
2023-09-12T01:55:53.179Z,12.20
2023-09-12T01:58:22.107Z,11.30
2023-09-12T02:00:50.222Z,11.70
2023-09-12T02:03:18.540Z,11.90
2023-09-12T02:05:46.886Z,12.10
2023-09-12T02:08:14.898Z,12.00
2023-09-12T02:10:42.856Z,10.70
2023-09-12T02:13:10.790Z,12.10
2023-09-12T02:15:38.819Z,11.60
2023-09-12T02:18:07.255Z,12.40
2023-09-12T02:20:39.591Z,13.00
2023-09-12T02:23:08.064Z,13.30
2023-09-12T02:25:35.984Z,13.30
2023-09-12T02:28:04.617Z,12.40
2023-09-12T02:30:32.638Z,12.40
2023-09-12T02:33:01.137Z,13.10
2023-09-12T02:35:29.804Z,14.70
2023-09-12T02:37:57.870Z,17.50
2023-09-12T02:40:26.037Z,14.30
2023-09-12T02:42:54.025Z,12.00
2023-09-12T02:45:22.065Z,13.10
2023-09-12T02:47:50.103Z,13.30
2023-09-12T02:50:18.270Z,13.90
2023-09-12T02:52:46.204Z,13.10
2023-09-12T02:55:14.164Z,14.20
2023-09-12T02:57:42.261Z,12.40
2023-09-12T03:00:12.505Z,11.70
2023-09-12T03:02:40.601Z,13.00
2023-09-12T03:05:09.317Z,14.30
2023-09-12T03:07:37.281Z,14.00
2023-09-12T03:10:05.783Z,12.90
2023-09-12T03:12:33.873Z,14.60
2023-09-12T03:15:02.281Z,14.00
2023-09-12T03:17:30.527Z,13.50
2023-09-12T03:19:58.784Z,12.90
2023-09-12T03:22:26.855Z,13.30
2023-09-12T03:24:54.826Z,15.20
2023-09-12T03:27:22.903Z,15.80
2023-09-12T03:29:51.081Z,15.20
2023-09-12T03:32:18.992Z,13.80
2023-09-12T03:34:46.972Z,10.70
2023-09-12T03:37:14.949Z,13.80
2023-09-12T03:39:42.955Z,13.00
2023-09-12T03:42:10.980Z,14.80
2023-09-12T03:44:39.174Z,16.20
2023-09-12T03:47:07.346Z,14.80
2023-09-12T03:49:35.668Z,14.30
2023-09-12T03:52:04.176Z,14.40
2023-09-12T03:54:33.857Z,14.50
2023-09-12T03:57:02.025Z,15.90
2023-09-12T03:59:30.066Z,15.90
2023-09-12T04:02:48.309Z,14.70
2023-09-12T04:05:16.367Z,15.40
2023-09-12T04:07:44.369Z,14.00
2023-09-12T04:10:12.712Z,12.60
2023-09-12T04:12:41.391Z,10.80
2023-09-12T04:15:09.777Z,12.60
2023-09-12T04:17:38.398Z,14.10
2023-09-12T04:20:07.261Z,13.90
2023-09-12T04:22:36.024Z,14.40
2023-09-12T04:25:04.639Z,15.50
2023-09-12T04:27:32.725Z,14.00
2023-09-12T04:34:37.191Z,12.70
2023-09-12T04:37:06.756Z,12.10
2023-09-12T04:39:35.981Z,12.40
2023-09-12T04:42:05.533Z,14.40
2023-09-12T04:44:41.247Z,14.20
2023-09-12T04:47:10.679Z,14.30
2023-09-12T04:49:40.727Z,14.30
2023-09-12T04:52:08.697Z,14.90
2023-09-12T04:54:37.647Z,13.80
2023-09-12T04:57:05.948Z,13.80
2023-09-12T04:59:34.155Z,12.50
2023-09-12T05:02:02.274Z,12.80
2023-09-12T05:04:30.442Z,13.60
2023-09-12T05:06:58.639Z,12.90
2023-09-12T05:09:26.614Z,13.60
2023-09-12T05:11:54.952Z,14.60
2023-09-12T05:14:23.380Z,16.60
2023-09-12T05:16:52.056Z,15.60
2023-09-12T05:19:20.729Z,16.50
2023-09-12T05:21:48.683Z,14.90
2023-09-12T05:24:16.689Z,14.80
2023-09-12T05:26:44.641Z,21.20
2023-09-12T05:29:12.990Z,18.90
2023-09-12T05:31:41.842Z,18.70
2023-09-12T05:34:10.403Z,14.00
2023-09-12T05:36:38.325Z,13.10
2023-09-12T05:39:06.463Z,13.30
2023-09-12T11:04:35.657Z,6.60
2023-09-12T11:07:42.052Z,6.80
2023-09-12T11:10:22.552Z,6.80
2023-09-12T11:12:55.963Z,6.90
2023-09-12T11:15:26.819Z,6.70
2023-09-12T11:18:04.900Z,6.80
2023-09-12T11:21:06.253Z,7.10
2023-09-12T11:23:35.862Z,6.70
2023-09-12T11:26:08.209Z,7.00
2023-09-12T11:28:36.500Z,7.10
2023-09-12T11:31:05.691Z,7.00
2023-09-12T11:33:34.195Z,7.10
2023-09-12T11:36:04.944Z,6.80
2023-09-12T11:38:33.527Z,7.00
2023-09-12T11:41:02.028Z,7.10
2023-09-12T11:43:30.192Z,7.00
2023-09-12T11:45:59.107Z,7.10
2023-09-12T11:48:31.226Z,7.10
2023-09-12T11:51:00.016Z,6.90
2023-09-12T11:53:32.324Z,7.20
2023-09-12T11:56:01.668Z,7.00
2023-09-12T11:58:30.143Z,6.70
2023-09-12T12:01:02.511Z,6.80
2023-09-12T12:03:31.268Z,6.90
2023-09-12T12:05:59.770Z,7.20
2023-09-12T12:08:32.467Z,6.80
2023-09-12T12:11:01.150Z,7.20
2023-09-12T12:13:29.933Z,6.90
2023-09-12T12:15:59.114Z,7.00
2023-09-12T12:18:28.014Z,7.10
2023-09-12T12:20:56.688Z,7.00
2023-09-12T12:23:24.802Z,6.80
2023-09-12T12:25:52.899Z,11.60
2023-09-12T12:28:22.721Z,6.60
2023-09-12T12:30:55.759Z,7.20
2023-09-12T12:34:13.189Z,7.00
2023-09-12T12:36:11.963Z,7.70
2023-09-12T12:38:51.151Z,6.40
2023-09-12T12:41:40.250Z,7.00
2023-09-12T12:44:14.578Z,7.10
2023-09-12T12:46:50.040Z,7.30
2023-09-12T12:49:18.109Z,7.40
2023-09-12T12:51:47.813Z,7.50
2023-09-12T12:54:16.640Z,7.20
2023-09-12T12:56:48.436Z,7.30
2023-09-12T12:59:16.429Z,7.50
2023-09-12T13:01:45.734Z,7.00
2023-09-12T13:04:14.029Z,7.40
2023-09-12T13:06:42.608Z,6.80
2023-09-12T13:09:12.848Z,7.10
2023-09-12T13:11:41.164Z,7.30
2023-09-12T13:14:12.363Z,7.40
2023-09-12T13:16:42.467Z,7.40
2023-09-12T13:19:14.893Z,6.90
2023-09-12T13:21:44.235Z,7.60
2023-09-12T13:24:14.549Z,7.00
2023-09-12T13:26:42.732Z,7.20
2023-09-12T13:29:11.722Z,7.10
2023-09-12T13:31:40.135Z,7.50
2023-09-12T13:34:08.618Z,7.40
2023-09-12T13:36:36.892Z,6.80
2023-09-12T13:39:05.378Z,7.20
2023-09-12T13:41:33.647Z,7.20
2023-09-12T13:44:01.720Z,7.40
2023-09-12T13:46:31.649Z,7.10
2023-09-12T13:49:01.822Z,7.40
2023-09-12T13:51:31.258Z,7.40
2023-09-12T13:53:59.291Z,7.60
2023-09-12T13:56:27.887Z,7.90
2023-09-12T13:58:56.778Z,7.60
2023-09-12T14:01:33.459Z,7.30
2023-09-12T14:04:04.342Z,7.40
2023-09-12T14:06:35.432Z,7.10
2023-09-12T14:09:04.564Z,7.10
2023-09-12T14:11:36.814Z,7.50
2023-09-12T14:16:38.735Z,7.50
2023-09-12T14:19:07.535Z,7.20
2023-09-12T14:21:36.107Z,7.30
2023-09-12T14:24:06.044Z,7.20
2023-09-12T14:26:35.093Z,6.90
2023-09-12T14:29:03.435Z,7.10
2023-09-12T14:31:31.784Z,7.10
2023-09-12T14:34:00.315Z,7.20
2023-09-12T14:36:28.653Z,7.40
2023-09-12T14:38:56.728Z,7.10
2023-09-12T14:41:24.637Z,7.30
2023-09-12T14:43:52.675Z,7.30
2023-09-12T14:46:20.837Z,7.00
2023-09-12T14:48:59.654Z,6.90
2023-09-12T14:51:33.559Z,6.70
2023-09-12T14:54:04.042Z,6.80
2023-09-12T14:56:33.682Z,6.90
2023-09-12T14:59:02.707Z,6.80
2023-09-12T15:01:32.722Z,7.20
2023-09-12T15:04:02.165Z,7.00
2023-09-12T15:06:34.205Z,7.10
2023-09-12T15:09:02.392Z,7.40
2023-09-12T15:11:32.752Z,7.20
2023-09-12T15:14:01.214Z,7.20
2023-09-12T15:16:32.678Z,7.10
2023-09-12T15:19:03.828Z,6.80
2023-09-12T15:21:31.876Z,7.40
2023-09-12T15:24:00.231Z,7.30
2023-09-12T15:26:28.302Z,7.80
2023-09-12T15:28:57.596Z,7.40
2023-09-12T15:31:25.672Z,7.00
2023-09-12T15:33:53.850Z,7.40
2023-09-12T15:36:22.500Z,7.20
2023-09-12T15:38:50.652Z,7.20
2023-09-12T15:41:19.089Z,7.30
2023-09-12T15:43:48.047Z,7.30
2023-09-12T15:46:30.998Z,7.40
2023-09-12T15:49:04.066Z,7.30
2023-09-12T15:51:33.187Z,7.60
2023-09-12T15:54:01.585Z,7.50
2023-09-12T15:56:29.696Z,7.50
2023-09-12T15:58:59.011Z,7.50
2023-09-12T16:01:27.284Z,7.50
2023-09-12T16:03:55.948Z,7.50
2023-09-12T16:06:23.998Z,7.80
2023-09-12T16:08:52.174Z,8.60
2023-09-12T16:11:20.389Z,9.20
2023-09-12T16:13:51.747Z,9.90
2023-09-12T16:16:20.293Z,11.30
2023-09-12T16:18:49.852Z,10.00
2023-09-12T16:21:18.270Z,10.90
2023-09-12T16:23:46.425Z,11.50
2023-09-12T16:26:14.480Z,12.50
2023-09-12T16:28:43.776Z,13.20
2023-09-12T16:31:12.038Z,14.50
2023-09-12T16:33:40.105Z,14.20
2023-09-12T16:36:08.505Z,13.00
2023-09-12T16:38:36.720Z,13.60
2023-09-12T16:41:04.822Z,12.30
2023-09-12T16:43:33.080Z,12.50
2023-09-12T16:46:01.556Z,12.20
2023-09-12T16:48:31.210Z,9.70
2023-09-12T16:51:00.352Z,10.40
2023-09-12T16:53:28.497Z,10.20
2023-09-12T16:55:59.288Z,10.30
2023-09-12T16:58:28.127Z,10.00
2023-09-12T17:00:56.199Z,10.00
2023-09-12T17:03:24.880Z,8.90
2023-09-12T17:05:53.043Z,9.60
2023-09-12T17:08:21.096Z,10.20
2023-09-12T17:10:49.600Z,8.60
2023-09-12T17:13:17.671Z,10.40
2023-09-12T17:15:45.694Z,10.60
2023-09-12T17:18:14.007Z,10.00
2023-09-12T17:20:42.231Z,8.60
2023-09-12T17:23:10.294Z,9.50
2023-09-12T17:25:38.254Z,10.10
2023-09-12T17:28:06.468Z,9.00
2023-09-12T17:30:34.599Z,10.50
2023-09-12T17:33:02.859Z,10.00
2023-09-12T17:35:30.871Z,14.80
2023-09-12T17:37:58.932Z,12.50
2023-09-12T17:40:27.162Z,12.20
2023-09-12T17:42:55.271Z,12.10
2023-09-12T17:45:23.428Z,10.70
2023-09-12T17:47:54.557Z,11.10
2023-09-12T17:50:23.502Z,11.80
2023-09-12T17:52:51.646Z,11.50
2023-09-12T17:55:20.673Z,13.50
2023-09-12T17:57:48.923Z,12.80
2023-09-12T18:00:17.294Z,11.70
2023-09-12T18:02:45.468Z,14.40
2023-09-12T18:05:13.585Z,10.80
2023-09-12T18:07:41.646Z,11.40
2023-09-12T18:10:10.179Z,11.60
2023-09-12T18:12:38.285Z,10.80
2023-09-12T18:15:08.483Z,11.30
2023-09-12T18:17:36.519Z,13.30
2023-09-12T18:20:05.359Z,12.80
2023-09-12T18:22:33.876Z,13.00
2023-09-12T18:25:02.216Z,14.30
2023-09-12T18:27:30.282Z,14.60
2023-09-12T18:29:58.320Z,16.60
2023-09-12T18:32:26.869Z,18.10
2023-09-12T18:34:54.972Z,18.20
2023-09-12T18:37:23.106Z,15.90
2023-09-12T18:39:51.242Z,15.30
2023-09-12T18:42:19.212Z,15.60
2023-09-12T18:44:47.109Z,14.60
2023-09-12T18:47:15.469Z,15.70
2023-09-12T18:49:43.560Z,14.90
2023-09-12T18:52:11.637Z,14.40
2023-09-12T18:54:39.692Z,14.20
2023-09-12T18:57:12.126Z,14.70
2023-09-12T18:59:42.057Z,14.70
2023-09-12T19:04:38.710Z,15.20
2023-09-12T19:07:06.865Z,15.80
2023-09-12T19:09:35.087Z,14.60
2023-09-12T19:12:04.932Z,14.80
2023-09-12T19:14:33.720Z,12.80
2023-09-12T19:17:02.702Z,12.40
2023-09-12T19:19:30.588Z,12.60
2023-09-12T19:21:59.268Z,13.00
2023-09-12T19:24:27.284Z,11.30
2023-09-12T19:26:55.250Z,12.00
2023-09-12T19:29:23.426Z,11.70
2023-09-12T19:31:51.879Z,11.50
2023-09-12T19:34:20.060Z,12.20
2023-09-12T19:36:48.302Z,11.70
2023-09-12T19:39:16.265Z,12.00
2023-09-12T19:41:44.247Z,11.10
2023-09-12T19:44:12.285Z,10.50
2023-09-12T19:46:41.647Z,10.50
2023-09-12T19:49:10.112Z,11.20
2023-09-12T19:51:38.324Z,10.80
2023-09-12T19:54:07.352Z,10.90
2023-09-12T19:56:35.881Z,10.20
2023-09-12T19:59:04.201Z,10.10
2023-09-12T20:01:32.150Z,10.10
2023-09-12T20:04:00.488Z,10.50
2023-09-12T20:06:28.789Z,11.20
2023-09-12T20:08:56.812Z,11.80
2023-09-12T20:11:25.165Z,11.90
2023-09-12T20:13:53.124Z,11.90
2023-09-12T20:16:22.947Z,13.40
2023-09-12T20:18:51.359Z,13.20
2023-09-12T20:21:19.364Z,11.60
2023-09-12T20:23:47.843Z,12.80
2023-09-12T20:26:15.679Z,11.60
2023-09-12T20:28:43.623Z,11.50
2023-09-12T20:31:11.784Z,12.10
2023-09-12T20:33:40.059Z,13.10
2023-09-12T20:36:08.308Z,12.80
2023-09-12T20:38:37.116Z,12.70
2023-09-12T20:41:05.048Z,13.90
2023-09-12T20:43:33.335Z,13.30
2023-09-12T20:46:01.249Z,13.30
2023-09-12T20:48:29.326Z,12.60
2023-09-12T20:50:57.219Z,12.70
2023-09-12T20:53:25.161Z,12.60
2023-09-12T20:55:53.043Z,13.40
2023-09-12T20:58:21.038Z,12.70
2023-09-12T21:00:49.625Z,11.80
2023-09-12T21:03:17.674Z,13.50
2023-09-12T21:05:47.170Z,12.60
2023-09-12T21:08:15.205Z,10.70
2023-09-12T21:10:45.006Z,11.90
2023-09-12T21:13:16.077Z,11.80
2023-09-12T21:15:44.161Z,12.30
2023-09-12T21:18:12.169Z,13.20
2023-09-12T21:20:40.169Z,13.90
2023-09-12T21:23:08.102Z,13.40
2023-09-12T21:25:36.104Z,13.10
2023-09-12T21:28:04.412Z,12.00
2023-09-12T21:30:32.404Z,12.80
2023-09-12T21:33:01.537Z,12.80
2023-09-12T21:35:29.753Z,14.00
2023-09-12T21:37:57.673Z,13.40
2023-09-12T21:40:25.688Z,12.70
2023-09-12T21:42:53.668Z,12.00
2023-09-12T21:45:22.062Z,12.50
2023-09-12T21:47:50.075Z,13.30
2023-09-12T21:50:18.296Z,13.70
2023-09-12T21:52:46.158Z,12.40
2023-09-12T21:55:14.138Z,13.50
2023-09-12T21:57:42.069Z,13.40
2023-09-12T22:00:24.317Z,12.50
2023-09-12T22:02:53.551Z,13.40
2023-09-12T22:05:22.636Z,15.00
2023-09-12T22:07:51.735Z,15.20
2023-09-12T22:10:20.932Z,15.10
2023-09-12T22:12:49.996Z,15.80
2023-09-12T22:15:18.330Z,14.60
2023-09-12T22:17:46.541Z,14.40
2023-09-12T22:20:18.616Z,13.80
2023-09-12T22:22:47.443Z,13.10
2023-09-12T22:25:16.300Z,13.60
2023-09-12T22:27:44.806Z,13.40
2023-09-12T22:30:12.910Z,13.70
2023-09-12T22:32:40.966Z,13.10
2023-09-12T22:35:09.709Z,13.90
2023-09-12T22:37:37.818Z,16.50
2023-09-12T22:40:08.296Z,15.70
2023-09-12T22:42:36.494Z,13.20
2023-09-12T22:45:06.561Z,13.00
2023-09-12T22:47:34.433Z,13.10
2023-09-12T22:50:06.628Z,13.30
2023-09-12T22:55:05.744Z,13.00
2023-09-12T22:57:34.189Z,13.90
2023-09-12T23:00:02.394Z,12.90
2023-09-12T23:02:30.283Z,12.70
2023-09-12T23:04:58.798Z,14.20
2023-09-12T23:07:27.023Z,15.10
2023-09-12T23:09:55.353Z,15.30
2023-09-12T23:12:24.239Z,14.20
2023-09-12T23:14:55.451Z,14.60
2023-09-12T23:17:23.921Z,14.50
2023-09-12T23:19:52.469Z,12.60
2023-09-12T23:22:20.567Z,14.10
2023-09-12T23:24:49.655Z,12.60
2023-09-12T23:27:17.587Z,13.00
2023-09-12T23:29:46.044Z,13.60
2023-09-12T23:32:14.057Z,14.50
2023-09-12T23:34:42.574Z,14.00
2023-09-12T23:37:10.776Z,14.60
2023-09-12T23:39:38.814Z,15.00
2023-09-12T23:42:06.923Z,15.10
2023-09-12T23:44:35.427Z,15.70
2023-09-12T23:47:03.487Z,16.30
2023-09-12T23:49:31.421Z,17.60
2023-09-12T23:51:59.377Z,17.20
2023-09-12T23:54:27.420Z,17.50
2023-09-12T23:56:55.209Z,17.00
2023-09-12T23:59:23.528Z,17.50
